TLSO2: Arkansas River, Tulsa, OK

Data processed at Sat Mar 10 2018 23:48


All information presented herein is the property of the government of the United States of America and may be revised or deleted at any time without prior notice.
Dissemination of this information without the expressed written consent of the Public Affairs Office, Tulsa District U.S. Army Corps of Engineers is strictly prohibited.
These data are gathered electronically and, as presented, have not undergone any form of quality control. These data are not guaranteed to be valid or correct.
Go to home page.
Go to station list.

Upstream stations:

Downstream station:
Previous Day
Next Day
Current Day
    
SHEF ID:       TLSO2     Arkansas River at Tulsa, OK
STATION TYPE:  

               PRECIP     STAGE  STAGE(2)  RIV-FLOW  WTR-TEMP   DIS-OXY  BAT-LOAD
                   in        ft        ft       cfs         F      mg/l      volt
              Ccp-Rev   Ccp-Rev   Ccp-Rev   Ccp-Rev   Ccp-Rev   Ccp-Rev   Ccp-Rev
(US/Central)
03/08 00:00      0.00      2.43      ----      2617     47.50     12.10     12.57
03/08 01:00      0.00      2.59      ----      3139     46.92     12.29     12.57
03/08 02:00      0.00      2.88      ----      4250     46.18     12.17     12.57
03/08 03:00      0.00      3.05      ----      4985     45.82     12.30     12.49
03/08 04:00      0.00      3.04      ----      4943     45.77     12.20     12.49
03/08 05:00      0.00      2.95      ----      4551     45.37     11.94     12.49
03/08 06:00      0.00      2.84      ----      4083     44.87     11.71     12.41
03/08 07:00      0.00      2.73      ----      3648     44.42     11.52     12.41
03/08 08:00      0.00      2.62      ----      3244     43.95     11.53     12.65
03/08 09:00      0.00      2.54      ----      2969     44.02     11.93     14.00
03/08 10:00      0.00      2.47      ----      2742     44.69     12.34     14.16
03/08 11:00      0.00      2.45      ----      2679     45.70     12.80     13.29
03/08 12:00      0.00      2.61      ----      3208     46.44     13.05     13.29
03/08 13:00      0.00      2.97      ----      4640     48.15     13.16     13.84
03/08 14:00      0.00      3.31      ----      6077     49.30     12.84     12.97
03/08 15:00      0.00      3.49      ----      6831     49.55     12.71     13.84
03/08 16:00      0.00      3.56      ----      7124     50.07     12.60     13.37
03/08 17:00      0.00      3.52      ----      6958     50.77     12.75     12.97
03/08 18:00      0.00      3.40      ----      6455     50.59     12.68     12.89
03/08 19:00      0.00      3.22      ----      5698     50.25     12.48     12.73
03/08 20:00      0.00      3.07      ----      5071     50.52     12.46     12.65
03/08 21:00      0.00      2.90      ----      4334     49.78     12.28     12.65
03/08 22:00      0.00      2.75      ----      3724     49.01     12.22     12.65
03/08 23:00      0.00      2.66      ----      3387     48.79     12.14     12.65